Time;durP1;ratioP1;P1;durP2;ratioP2;P2;SDS_P1;SDS_P2;PMS_P1;PMS_P2;Temp;Humidity;BMP_temperature;BMP_pressure;BME280_temperature;BME280_humidity;BME280_pressure;Samples;Min_cycle;Max_cycle;Signal;HPM_P1;HPM_P2
2023/11/07 00:00:17;;;;;;;0.30;0.30;;;;;;;;;;7399240;19;20159;-91
2023/11/07 00:02:44;;;;;;;0.30;0.30;;;;;;;;;;7397217;19;20152;-93
2023/11/07 00:05:11;;;;;;;0.57;0.57;;;;;;;;;;7396367;19;20176;-93
2023/11/07 00:07:38;;;;;;;0.47;0.47;;;;;;;;;;7398892;19;20581;-94
2023/11/07 00:10:06;;;;;;;0.30;0.30;;;;;;;;;;7395387;19;20137;-93
2023/11/07 00:12:33;;;;;;;0.30;0.30;;;;;;;;;;7396228;19;20133;-92
2023/11/07 00:15:00;;;;;;;0.30;0.30;;;;;;;;;;7396442;19;20173;-91
2023/11/07 00:17:27;;;;;;;0.30;0.30;;;;;;;;;;7398567;19;20137;-93
2023/11/07 00:19:56;;;;;;;0.30;0.30;;;;;;;;;;7396219;19;20129;-92
2023/11/07 00:22:24;;;;;;;0.30;0.30;;;;;;;;;;7397143;19;20152;-93
2023/11/07 00:24:53;;;;;;;0.30;0.30;;;;;;;;;;7394214;19;20216;-92
2023/11/07 00:27:20;;;;;;;0.40;0.40;;;;;;;;;;7396472;19;20137;-92
2023/11/07 00:29:46;;;;;;;0.20;0.20;;;;;;;;;;7395856;19;20125;-90
2023/11/07 00:32:14;;;;;;;0.30;0.30;;;;;;;;;;7394201;19;20161;-92
2023/11/07 00:34:41;;;;;;;0.30;0.30;;;;;;;;;;7394427;19;20605;-92
2023/11/07 00:37:09;;;;;;;0.30;0.30;;;;;;;;;;7396606;19;20173;-94
2023/11/07 00:39:36;;;;;;;0.20;0.20;;;;;;;;;;7394183;19;20145;-91
2023/11/07 00:42:04;;;;;;;0.27;0.27;;;;;;;;;;7396381;19;20150;-93
2023/11/07 00:44:31;;;;;;;0.30;0.30;;;;;;;;;;7395520;19;20509;-91
2023/11/07 00:46:59;;;;;;;0.20;0.20;;;;;;;;;;7394397;19;20144;-92
2023/11/07 00:49:27;;;;;;;0.30;0.30;;;;;;;;;;7395669;19;20141;-90
2023/11/07 00:51:54;;;;;;;0.30;0.30;;;;;;;;;;7396755;19;20137;-92
2023/11/07 00:54:20;;;;;;;0.20;0.20;;;;;;;;;;7392450;19;20160;-90
2023/11/07 00:56:47;;;;;;;0.30;0.30;;;;;;;;;;7392783;19;20141;-90
2023/11/07 00:59:14;;;;;;;0.30;0.30;;;;;;;;;;7396220;19;20140;-93
2023/11/07 01:01:41;;;;;;;0.40;0.40;;;;;;;;;;7396195;19;20141;-92
2023/11/07 01:04:08;;;;;;;0.30;0.30;;;;;;;;;;7397048;19;20598;-91
2023/11/07 01:06:35;;;;;;;0.30;0.30;;;;;;;;;;7393712;19;20137;-92
2023/11/07 01:09:03;;;;;;;0.27;0.27;;;;;;;;;;7393932;19;20140;-91
2023/11/07 01:11:30;;;;;;;0.30;0.30;;;;;;;;;;7392722;19;20569;-92
2023/11/07 01:13:57;;;;;;;0.30;0.30;;;;;;;;;;7396322;19;20144;-93
2023/11/07 01:16:25;;;;;;;0.30;0.30;;;;;;;;;;7392105;19;20140;-92
2023/11/07 01:18:52;;;;;;;0.30;0.30;;;;;;;;;;7393262;19;20143;-92
2023/11/07 01:21:19;;;;;;;0.27;0.27;;;;;;;;;;7393460;19;20141;-92
2023/11/07 01:23:46;;;;;;;0.30;0.30;;;;;;;;;;7394246;19;20157;-89
2023/11/07 01:26:13;;;;;;;0.30;0.30;;;;;;;;;;7395594;19;20132;-92
2023/11/07 01:28:39;;;;;;;0.30;0.30;;;;;;;;;;7390824;19;20139;-93
2023/11/07 01:31:06;;;;;;;0.30;0.30;;;;;;;;;;7392816;19;20137;-92
2023/11/07 01:33:33;;;;;;;0.30;0.30;;;;;;;;;;7392066;19;20616;-90
2023/11/07 01:36:00;;;;;;;0.20;0.20;;;;;;;;;;7393023;19;20166;-93
2023/11/07 01:38:28;;;;;;;0.30;0.30;;;;;;;;;;7393750;19;20144;-92
2023/11/07 01:40:54;;;;;;;0.20;0.20;;;;;;;;;;7393279;19;20141;-93
2023/11/07 01:43:23;;;;;;;0.20;0.20;;;;;;;;;;7392008;19;20485;-91
2023/11/07 01:45:50;;;;;;;0.30;0.30;;;;;;;;;;7393334;19;20133;-91
2023/11/07 01:48:22;;;;;;;0.30;0.30;;;;;;;;;;7393665;19;20137;-92
2023/11/07 01:50:49;;;;;;;0.30;0.30;;;;;;;;;;7392819;19;20144;-92
2023/11/07 01:53:17;;;;;;;0.30;0.30;;;;;;;;;;7392911;19;20593;-93
2023/11/07 01:55:44;;;;;;;0.30;0.30;;;;;;;;;;7392499;19;20669;-91
2023/11/07 01:58:12;;;;;;;0.50;0.50;;;;;;;;;;7393802;19;20146;-92
2023/11/07 02:00:39;;;;;;;0.30;0.30;;;;;;;;;;7392130;19;20162;-92
2023/11/07 02:03:07;;;;;;;0.20;0.20;;;;;;;;;;7392977;19;20610;-90
2023/11/07 02:05:36;;;;;;;0.53;0.53;;;;;;;;;;7390611;19;20149;-91
2023/11/07 02:08:05;;;;;;;0.30;0.30;;;;;;;;;;7391327;19;20144;-90
2023/11/07 02:10:32;;;;;;;0.30;0.30;;;;;;;;;;7393839;19;20155;-93
2023/11/07 02:12:59;;;;;;;0.30;0.30;;;;;;;;;;7392701;19;20168;-91
2023/11/07 02:15:26;;;;;;;0.30;0.30;;;;;;;;;;7389215;19;20216;-91
2023/11/07 02:17:54;;;;;;;0.30;0.30;;;;;;;;;;7392307;19;20626;-91
2023/11/07 02:20:21;;;;;;;0.63;0.63;;;;;;;;;;7394810;19;20150;-92
2023/11/07 02:22:53;;;;;;;0.30;0.30;;;;;;;;;;7391947;19;20160;-93
2023/11/07 02:25:20;;;;;;;0.30;0.30;;;;;;;;;;7388885;19;20161;-92
2023/11/07 02:27:47;;;;;;;0.30;0.30;;;;;;;;;;7390823;19;20729;-91
2023/11/07 02:30:14;;;;;;;0.30;0.30;;;;;;;;;;7389020;19;20593;-92
2023/11/07 02:32:42;;;;;;;0.30;0.30;;;;;;;;;;7388642;19;20586;-91
2023/11/07 02:35:13;;;;;;;0.30;0.30;;;;;;;;;;7390474;19;20172;-91
2023/11/07 02:37:41;;;;;;;0.30;0.30;;;;;;;;;;7400972;19;20125;-92
2023/11/07 02:40:10;;;;;;;0.30;0.30;;;;;;;;;;7398835;19;20125;-93
2023/11/07 02:42:37;;;;;;;0.30;0.30;;;;;;;;;;7398618;19;20560;-92
2023/11/07 02:45:05;;;;;;;0.30;0.30;;;;;;;;;;7400998;19;20178;-92
2023/11/07 02:47:32;;;;;;;0.30;0.30;;;;;;;;;;7399233;19;20144;-92
2023/11/07 02:50:08;;;;;;;0.37;0.37;;;;;;;;;;7394725;19;20132;-92
2023/11/07 02:52:36;;;;;;;0.30;0.30;;;;;;;;;;7394851;19;20130;-92
2023/11/07 02:55:04;;;;;;;0.20;0.20;;;;;;;;;;7397671;19;20208;-92
2023/11/07 02:57:31;;;;;;;0.30;0.30;;;;;;;;;;7399347;19;20137;-91
2023/11/07 02:59:58;;;;;;;0.30;0.30;;;;;;;;;;7398429;19;20141;-93
2023/11/07 03:02:26;;;;;;;0.40;0.40;;;;;;;;;;7396731;19;20144;-92
2023/11/07 03:04:54;;;;;;;0.30;0.30;;;;;;;;;;7396643;19;20141;-94
2023/11/07 03:07:21;;;;;;;0.30;0.30;;;;;;;;;;7395843;19;20133;-93
2023/11/07 03:09:48;;;;;;;0.20;0.20;;;;;;;;;;7396734;19;20160;-93
2023/11/07 03:12:16;;;;;;;0.30;0.30;;;;;;;;;;7399205;19;20129;-92
2023/11/07 03:14:43;;;;;;;0.20;0.20;;;;;;;;;;7399415;19;20157;-92
2023/11/07 03:17:10;;;;;;;0.30;0.30;;;;;;;;;;7398046;19;20208;-92
2023/11/07 03:19:37;;;;;;;0.30;0.30;;;;;;;;;;7398784;19;20160;-92
2023/11/07 03:22:04;;;;;;;0.30;0.30;;;;;;;;;;7398119;19;20152;-93
2023/11/07 03:24:31;;;;;;;0.27;0.27;;;;;;;;;;7395731;19;20149;-91
2023/11/07 03:26:58;;;;;;;0.30;0.30;;;;;;;;;;7396101;19;20141;-91
2023/11/07 03:29:26;;;;;;;0.47;0.47;;;;;;;;;;7394662;19;20140;-92
2023/11/07 03:31:53;;;;;;;0.30;0.30;;;;;;;;;;7393124;19;20500;-91
2023/11/07 03:34:21;;;;;;;0.30;0.30;;;;;;;;;;7393751;19;20168;-91
2023/11/07 03:36:48;;;;;;;0.30;0.30;;;;;;;;;;7395428;19;20636;-92
2023/11/07 03:39:15;;;;;;;0.30;0.30;;;;;;;;;;7396769;19;20220;-91
2023/11/07 03:41:42;;;;;;;0.30;0.30;;;;;;;;;;7396972;19;20125;-90
2023/11/07 03:44:09;;;;;;;0.30;0.30;;;;;;;;;;7395764;19;20156;-93
2023/11/07 03:46:35;;;;;;;0.30;0.30;;;;;;;;;;7396299;19;20657;-92
2023/11/07 03:49:02;;;;;;;0.30;0.30;;;;;;;;;;7397829;19;20146;-92
2023/11/07 03:51:29;;;;;;;0.30;0.30;;;;;;;;;;7397593;19;20543;-91
2023/11/07 03:53:56;;;;;;;0.30;0.30;;;;;;;;;;7397467;19;20182;-93
2023/11/07 03:56:23;;;;;;;0.30;0.30;;;;;;;;;;7398204;19;20136;-92
2023/11/07 03:58:50;;;;;;;0.30;0.30;;;;;;;;;;7394665;19;20196;-92
2023/11/07 04:01:16;;;;;;;0.30;0.30;;;;;;;;;;7391907;19;20137;-92
2023/11/07 04:03:43;;;;;;;0.30;0.30;;;;;;;;;;7394823;19;20152;-91
2023/11/07 04:06:10;;;;;;;0.30;0.30;;;;;;;;;;7396913;19;20144;-93
2023/11/07 04:08:37;;;;;;;0.30;0.30;;;;;;;;;;7396453;19;20125;-92
2023/11/07 04:11:04;;;;;;;0.30;0.30;;;;;;;;;;7394103;19;20636;-91
2023/11/07 04:13:34;;;;;;;0.30;0.30;;;;;;;;;;7394145;19;20137;-92
2023/11/07 04:16:02;;;;;;;0.30;0.30;;;;;;;;;;7390731;19;20238;-93
2023/11/07 04:18:29;;;;;;;0.30;0.30;;;;;;;;;;7393675;19;20179;-92
2023/11/07 04:20:57;;;;;;;0.30;0.30;;;;;;;;;;7395266;19;20146;-92
2023/11/07 04:23:24;;;;;;;0.30;0.30;;;;;;;;;;7393690;19;20499;-92
2023/11/07 04:25:50;;;;;;;0.30;0.30;;;;;;;;;;7395475;19;20184;-92
2023/11/07 04:28:17;;;;;;;0.40;0.40;;;;;;;;;;7396329;19;20162;-92
2023/11/07 04:30:44;;;;;;;0.30;0.30;;;;;;;;;;7394180;19;20200;-91
2023/11/07 04:33:11;;;;;;;0.30;0.30;;;;;;;;;;7392085;19;20137;-92
2023/11/07 04:35:39;;;;;;;0.23;0.23;;;;;;;;;;7392404;19;20165;-92
2023/11/07 04:38:06;;;;;;;0.30;0.30;;;;;;;;;;7396044;19;20144;-91
2023/11/07 04:40:33;;;;;;;0.67;0.67;;;;;;;;;;7394441;19;20483;-90
2023/11/07 04:43:01;;;;;;;0.33;0.33;;;;;;;;;;7393503;19;20181;-92
2023/11/07 04:45:28;;;;;;;0.30;0.30;;;;;;;;;;7392917;19;20205;-93
2023/11/07 04:47:55;;;;;;;0.30;0.30;;;;;;;;;;7395084;19;20154;-91
2023/11/07 04:50:24;;;;;;;0.30;0.30;;;;;;;;;;7397181;19;20205;-92
2023/11/07 04:52:50;;;;;;;0.30;0.30;;;;;;;;;;7398643;19;20768;-92
2023/11/07 04:55:18;;;;;;;0.90;0.87;;;;;;;;;;7393222;19;20176;-92
2023/11/07 04:57:46;;;;;;;0.40;0.40;;;;;;;;;;7392419;19;20149;-92
2023/11/07 05:00:15;;;;;;;0.50;0.50;;;;;;;;;;7392378;19;20392;-92
2023/11/07 05:02:42;;;;;;;0.33;0.33;;;;;;;;;;7392628;19;20121;-92
2023/11/07 05:05:11;;;;;;;0.30;0.30;;;;;;;;;;7392699;19;20183;-93
2023/11/07 05:07:38;;;;;;;0.30;0.30;;;;;;;;;;7395556;19;20125;-92
2023/11/07 05:10:09;;;;;;;0.30;0.30;;;;;;;;;;7394879;19;20131;-93
2023/11/07 05:12:37;;;;;;;0.30;0.30;;;;;;;;;;7396350;19;20125;-91
2023/11/07 05:15:04;;;;;;;0.30;0.30;;;;;;;;;;7392500;19;20164;-92
2023/11/07 05:17:31;;;;;;;0.33;0.33;;;;;;;;;;7396282;19;20486;-92
2023/11/07 05:19:58;;;;;;;0.30;0.30;;;;;;;;;;7393188;19;20141;-91
2023/11/07 05:22:25;;;;;;;0.30;0.30;;;;;;;;;;7395294;19;20228;-92
2023/11/07 05:24:51;;;;;;;0.30;0.30;;;;;;;;;;7393288;19;20164;-91
2023/11/07 05:27:18;;;;;;;0.30;0.30;;;;;;;;;;7394531;19;20571;-93
2023/11/07 05:29:47;;;;;;;0.30;0.30;;;;;;;;;;7393226;19;20157;-91
2023/11/07 05:32:13;;;;;;;0.30;0.30;;;;;;;;;;7395467;19;20141;-93
2023/11/07 05:34:41;;;;;;;0.30;0.30;;;;;;;;;;7394782;19;20284;-93
2023/11/07 05:37:07;;;;;;;0.57;0.57;;;;;;;;;;7396807;19;20208;-93
2023/11/07 05:39:34;;;;;;;0.40;0.40;;;;;;;;;;7392235;19;20546;-92
2023/11/07 05:42:03;;;;;;;0.37;0.37;;;;;;;;;;7393724;19;20133;-92
2023/11/07 05:44:30;;;;;;;0.33;0.33;;;;;;;;;;7390443;19;20184;-93
2023/11/07 05:46:57;;;;;;;0.30;0.30;;;;;;;;;;7389831;19;20196;-90
2023/11/07 05:49:24;;;;;;;0.30;0.30;;;;;;;;;;7395138;19;20144;-91
2023/11/07 05:51:52;;;;;;;0.30;0.30;;;;;;;;;;7395541;19;20137;-93
2023/11/07 05:54:19;;;;;;;0.30;0.30;;;;;;;;;;7395279;19;20176;-93
2023/11/07 05:56:46;;;;;;;1.07;1.07;;;;;;;;;;7398788;19;20525;-93
2023/11/07 05:59:13;;;;;;;0.30;0.30;;;;;;;;;;7402009;19;20145;-92
2023/11/07 06:01:40;;;;;;;0.30;0.30;;;;;;;;;;7405125;19;20197;-93
2023/11/07 06:04:08;;;;;;;0.30;0.30;;;;;;;;;;7398550;19;20508;-92
2023/11/07 06:06:35;;;;;;;0.30;0.30;;;;;;;;;;7411239;19;20141;-92
2023/11/07 06:09:04;;;;;;;0.30;0.30;;;;;;;;;;7412603;19;20141;-92
2023/11/07 06:11:31;;;;;;;0.30;0.30;;;;;;;;;;7419975;19;20158;-93
2023/11/07 06:13:58;;;;;;;0.40;0.40;;;;;;;;;;7412334;19;20177;-94
2023/11/07 06:16:26;;;;;;;0.30;0.30;;;;;;;;;;7409080;19;20216;-92
2023/11/07 06:18:54;;;;;;;0.27;0.27;;;;;;;;;;7405074;19;20145;-93
2023/11/07 06:21:21;;;;;;;0.30;0.30;;;;;;;;;;7420325;19;20133;-93
2023/11/07 06:23:50;;;;;;;0.80;0.80;;;;;;;;;;7406770;19;20483;-93
2023/11/07 06:26:17;;;;;;;0.30;0.30;;;;;;;;;;7405216;19;20149;-93
2023/11/07 06:28:48;;;;;;;0.30;0.30;;;;;;;;;;7397787;19;20148;-93
2023/11/07 06:31:29;;;;;;;0.30;0.30;;;;;;;;;;7403836;19;20156;-93
2023/11/07 06:33:56;;;;;;;0.30;0.30;;;;;;;;;;7404342;19;20161;-91
2023/11/07 06:36:24;;;;;;;0.30;0.30;;;;;;;;;;7397054;19;20157;-93
2023/11/07 06:38:52;;;;;;;0.70;0.70;;;;;;;;;;7400034;19;20140;-91
2023/11/07 06:41:20;;;;;;;0.30;0.30;;;;;;;;;;7400236;19;20141;-92
2023/11/07 06:43:48;;;;;;;0.30;0.30;;;;;;;;;;7399744;19;20236;-91
2023/11/07 06:46:15;;;;;;;0.30;0.30;;;;;;;;;;7398977;19;20172;-92
2023/11/07 06:48:46;;;;;;;0.30;0.30;;;;;;;;;;7398684;19;20148;-93
2023/11/07 06:51:14;;;;;;;0.30;0.30;;;;;;;;;;7400382;19;20137;-92
2023/11/07 06:53:42;;;;;;;0.30;0.30;;;;;;;;;;7398380;19;20641;-92
2023/11/07 06:56:08;;;;;;;0.30;0.30;;;;;;;;;;7398011;19;20149;-91
2023/11/07 06:58:35;;;;;;;0.30;0.30;;;;;;;;;;7403055;19;20159;-92
2023/11/07 07:01:03;;;;;;;0.30;0.30;;;;;;;;;;7398272;19;20629;-91
2023/11/07 07:03:29;;;;;;;0.30;0.30;;;;;;;;;;7398667;19;20145;-92
2023/11/07 07:05:56;;;;;;;0.30;0.30;;;;;;;;;;7400702;19;20145;-91
2023/11/07 07:08:24;;;;;;;0.20;0.20;;;;;;;;;;7413937;19;20173;-93
2023/11/07 07:10:51;;;;;;;0.43;0.43;;;;;;;;;;7434293;19;20121;-92
2023/11/07 07:13:19;;;;;;;0.23;0.23;;;;;;;;;;7427723;19;20129;-93
2023/11/07 07:15:46;;;;;;;0.30;0.30;;;;;;;;;;7425926;19;20597;-93
2023/11/07 07:18:18;;;;;;;0.70;0.70;;;;;;;;;;7398776;19;20475;-92
2023/11/07 07:20:47;;;;;;;0.30;0.30;;;;;;;;;;7399459;19;20146;-93
2023/11/07 07:23:14;;;;;;;0.30;0.30;;;;;;;;;;7395433;19;20145;-93
2023/11/07 07:25:41;;;;;;;1.03;0.93;;;;;;;;;;7392969;19;20149;-92
2023/11/07 07:28:07;;;;;;;0.30;0.30;;;;;;;;;;7395531;19;20125;-94
2023/11/07 07:30:37;;;;;;;0.30;0.30;;;;;;;;;;7392606;19;20140;-94
2023/11/07 07:33:07;;;;;;;0.60;0.60;;;;;;;;;;7392936;19;20129;-92
2023/11/07 07:35:34;;;;;;;0.30;0.30;;;;;;;;;;7394707;19;20760;-92
2023/11/07 07:38:03;;;;;;;0.30;0.30;;;;;;;;;;7394857;19;20137;-91
2023/11/07 07:40:45;;;;;;;0.30;0.30;;;;;;;;;;7394616;19;20152;-91
2023/11/07 07:43:51;;;;;;;0.30;0.30;;;;;;;;;;7398602;19;20151;-90
2023/11/07 07:46:31;;;;;;;0.30;0.30;;;;;;;;;;7394124;19;20144;-90
2023/11/07 07:48:58;;;;;;;0.30;0.30;;;;;;;;;;7406151;19;20133;-92
2023/11/07 07:51:24;;;;;;;0.30;0.30;;;;;;;;;;7417843;19;20124;-95
2023/11/07 07:53:53;;;;;;;0.73;0.73;;;;;;;;;;7426444;19;20501;-91
2023/11/07 07:56:20;;;;;;;0.30;0.30;;;;;;;;;;7428487;19;20137;-93
2023/11/07 07:58:47;;;;;;;0.27;0.27;;;;;;;;;;7429294;19;20137;-92
2023/11/07 08:03:56;;;;;;;0.30;0.30;;;;;;;;;;7402486;19;20161;-89
2023/11/07 08:06:23;;;;;;;0.30;0.30;;;;;;;;;;7391043;19;20150;-89
2023/11/07 08:08:49;;;;;;;0.30;0.30;;;;;;;;;;7396226;19;20149;-87
2023/11/07 08:11:16;;;;;;;0.30;0.30;;;;;;;;;;7396306;19;20143;-89
2023/11/07 08:13:43;;;;;;;0.40;0.40;;;;;;;;;;7396982;19;20169;-88
2023/11/07 08:17:06;;;;;;;0.30;0.30;;;;;;;;;;7415705;19;20141;-96
2023/11/07 08:19:41;;;;;;;0.30;0.30;;;;;;;;;;7402529;19;20132;-92
2023/11/07 08:22:09;;;;;;;0.30;0.30;;;;;;;;;;7406948;19;20145;-91
2023/11/07 08:24:36;;;;;;;0.20;0.20;;;;;;;;;;7402472;19;20161;-92
2023/11/07 08:27:03;;;;;;;0.30;0.30;;;;;;;;;;7402492;19;20144;-92
2023/11/07 08:29:30;;;;;;;0.30;0.30;;;;;;;;;;7401625;19;20615;-92
2023/11/07 08:31:57;;;;;;;0.30;0.30;;;;;;;;;;7405020;19;20204;-91
2023/11/07 08:34:24;;;;;;;0.30;0.30;;;;;;;;;;7393430;19;20232;-90
2023/11/07 08:36:52;;;;;;;0.40;0.40;;;;;;;;;;7396406;19;20143;-90
2023/11/07 08:39:34;;;;;;;0.30;0.30;;;;;;;;;;7394447;19;20141;-90
2023/11/07 08:42:01;;;;;;;0.30;0.30;;;;;;;;;;7396098;19;20212;-91
2023/11/07 08:44:28;;;;;;;0.20;0.20;;;;;;;;;;7395007;19;20161;-90
2023/11/07 08:46:54;;;;;;;0.30;0.30;;;;;;;;;;7392572;19;20145;-90
2023/11/07 08:49:21;;;;;;;0.30;0.30;;;;;;;;;;7395280;19;20132;-90
2023/11/07 08:51:51;;;;;;;0.20;0.20;;;;;;;;;;7396455;19;20137;-91
2023/11/07 08:54:19;;;;;;;0.30;0.30;;;;;;;;;;7394436;19;20760;-89
2023/11/07 08:56:49;;;;;;;0.30;0.30;;;;;;;;;;7394277;19;20192;-90
2023/11/07 08:59:17;;;;;;;0.30;0.30;;;;;;;;;;7392482;19;20140;-92
2023/11/07 09:01:49;;;;;;;0.30;0.30;;;;;;;;;;7392176;19;20148;-89
2023/11/07 09:04:17;;;;;;;0.30;0.30;;;;;;;;;;7393685;19;20159;-90
2023/11/07 09:06:44;;;;;;;0.30;0.30;;;;;;;;;;7394566;19;20641;-91
2023/11/07 09:09:14;;;;;;;0.30;0.30;;;;;;;;;;7393623;19;20159;-91
2023/11/07 09:11:43;;;;;;;0.30;0.30;;;;;;;;;;7396515;19;20156;-91
2023/11/07 09:14:11;;;;;;;0.30;0.30;;;;;;;;;;7393337;19;20180;-91
2023/11/07 09:16:40;;;;;;;0.30;0.30;;;;;;;;;;7390023;19;20137;-90
2023/11/07 09:19:08;;;;;;;0.30;0.30;;;;;;;;;;7393815;19;20144;-91
2023/11/07 09:21:35;;;;;;;0.30;0.30;;;;;;;;;;7393894;19;20140;-90
2023/11/07 09:24:02;;;;;;;0.53;0.53;;;;;;;;;;7393856;19;20181;-90
2023/11/07 09:26:29;;;;;;;0.30;0.30;;;;;;;;;;7394893;19;20154;-91
2023/11/07 09:28:56;;;;;;;0.30;0.30;;;;;;;;;;7391527;19;20665;-91
2023/11/07 09:31:23;;;;;;;0.20;0.20;;;;;;;;;;7392356;19;20471;-91
2023/11/07 09:33:50;;;;;;;0.30;0.30;;;;;;;;;;7397625;19;20601;-92
2023/11/07 09:36:18;;;;;;;0.30;0.30;;;;;;;;;;7393525;19;20243;-90
2023/11/07 09:38:46;;;;;;;0.30;0.30;;;;;;;;;;7394576;19;20156;-92
2023/11/07 09:41:18;;;;;;;0.20;0.20;;;;;;;;;;7395632;19;20139;-92
2023/11/07 09:43:46;;;;;;;0.27;0.27;;;;;;;;;;7393433;19;20489;-91
2023/11/07 09:46:13;;;;;;;0.30;0.30;;;;;;;;;;7405296;19;20141;-92
2023/11/07 09:48:41;;;;;;;0.30;0.30;;;;;;;;;;7406801;19;20125;-92
2023/11/07 09:51:09;;;;;;;0.30;0.30;;;;;;;;;;7411974;19;20739;-90
2023/11/07 09:53:39;;;;;;;0.53;0.53;;;;;;;;;;7409320;19;20140;-93
2023/11/07 09:56:10;;;;;;;0.30;0.30;;;;;;;;;;7409202;19;20144;-91
2023/11/07 09:58:41;;;;;;;0.30;0.30;;;;;;;;;;7409500;19;20161;-93
2023/11/07 10:01:09;;;;;;;0.30;0.30;;;;;;;;;;7411522;19;20212;-90
2023/11/07 10:03:39;;;;;;;0.30;0.30;;;;;;;;;;7411297;19;20145;-91
2023/11/07 10:06:06;;;;;;;0.30;0.30;;;;;;;;;;7410830;19;20136;-91
2023/11/07 10:08:35;;;;;;;0.30;0.30;;;;;;;;;;7407668;19;20140;-92
2023/11/07 10:11:09;;;;;;;0.27;0.27;;;;;;;;;;7407810;19;20167;-92
2023/11/07 10:13:37;;;;;;;0.30;0.30;;;;;;;;;;7406576;19;20139;-90
2023/11/07 10:16:08;;;;;;;0.30;0.30;;;;;;;;;;7415328;19;20143;-91
2023/11/07 10:18:47;;;;;;;0.30;0.30;;;;;;;;;;7438691;19;20136;-88
2023/11/07 10:21:29;;;;;;;0.30;0.30;;;;;;;;;;7405033;19;20137;-90
2023/11/07 10:23:56;;;;;;;0.30;0.30;;;;;;;;;;7408159;19;20180;-90
2023/11/07 10:26:26;;;;;;;0.40;0.40;;;;;;;;;;7407581;19;20137;-91
2023/11/07 10:29:25;;;;;;;0.30;0.30;;;;;;;;;;7408289;19;20137;-92
2023/11/07 10:32:02;;;;;;;0.20;0.20;;;;;;;;;;7406436;19;20141;-90
2023/11/07 10:34:30;;;;;;;0.88;0.88;;;;;;;;;;7403520;19;20628;-90
2023/11/07 10:37:00;;;;;;;0.30;0.30;;;;;;;;;;7406629;19;20185;-91
2023/11/07 10:39:28;;;;;;;0.30;0.30;;;;;;;;;;7408135;19;20133;-91
2023/11/07 10:41:56;;;;;;;0.30;0.30;;;;;;;;;;7408534;19;20483;-91
2023/11/07 10:44:24;;;;;;;0.30;0.30;;;;;;;;;;7410067;19;20161;-92
2023/11/07 10:46:53;;;;;;;0.30;0.30;;;;;;;;;;7408442;19;20168;-91
2023/11/07 10:49:24;;;;;;;0.55;0.55;;;;;;;;;;7408926;19;20483;-89
2023/11/07 10:51:52;;;;;;;0.30;0.30;;;;;;;;;;7408190;19;20216;-94
2023/11/07 10:54:21;;;;;;;0.40;0.40;;;;;;;;;;7405842;19;20172;-91
2023/11/07 10:56:49;;;;;;;0.30;0.30;;;;;;;;;;7401405;19;20160;-91
2023/11/07 10:59:22;;;;;;;0.30;0.30;;;;;;;;;;7400573;19;20148;-92
2023/11/07 11:01:52;;;;;;;0.30;0.30;;;;;;;;;;7398074;19;20145;-92
2023/11/07 11:04:22;;;;;;;0.20;0.20;;;;;;;;;;7397528;19;20212;-91
2023/11/07 11:07:01;;;;;;;0.30;0.30;;;;;;;;;;7398478;19;20239;-93
2023/11/07 11:09:29;;;;;;;0.30;0.30;;;;;;;;;;7398266;19;20165;-92
2023/11/07 11:11:59;;;;;;;0.30;0.30;;;;;;;;;;7423420;19;20168;-90
2023/11/07 11:14:26;;;;;;;0.30;0.30;;;;;;;;;;7427902;19;20160;-92
2023/11/07 11:17:00;;;;;;;0.30;0.30;;;;;;;;;;7429757;19;20126;-91
2023/11/07 11:19:33;;;;;;;0.22;0.22;;;;;;;;;;7419187;19;20169;-92
2023/11/07 11:22:27;;;;;;;0.30;0.30;;;;;;;;;;7401261;19;20137;-92
2023/11/07 11:25:10;;;;;;;0.57;0.57;;;;;;;;;;7401800;19;20159;-90
2023/11/07 11:27:51;;;;;;;0.30;0.30;;;;;;;;;;7401800;19;20146;-89
2023/11/07 11:30:26;;;;;;;0.30;0.30;;;;;;;;;;7396651;19;20151;-91
2023/11/07 11:33:11;;;;;;;0.30;0.30;;;;;;;;;;7397396;19;20139;-93
2023/11/07 11:35:40;;;;;;;0.30;0.30;;;;;;;;;;7394907;19;20153;-93
2023/11/07 11:41:00;;;;;;;0.30;0.30;;;;;;;;;;7397722;19;20151;-93
2023/11/07 11:43:29;;;;;;;0.30;0.30;;;;;;;;;;7393936;19;20265;-93
2023/11/07 11:46:00;;;;;;;0.30;0.30;;;;;;;;;;7395413;19;20152;-91
2023/11/07 11:48:49;;;;;;;0.30;0.30;;;;;;;;;;7395478;19;20144;-94
2023/11/07 11:51:42;;;;;;;0.20;0.20;;;;;;;;;;7395509;19;20140;-92
2023/11/07 11:54:10;;;;;;;0.30;0.30;;;;;;;;;;7396492;19;20217;-94
2023/11/07 11:56:49;;;;;;;0.20;0.20;;;;;;;;;;7397303;19;20613;-92
2023/11/07 11:59:19;;;;;;;0.30;0.30;;;;;;;;;;7398663;19;20133;-91
2023/11/07 12:02:00;;;;;;;0.23;0.23;;;;;;;;;;7395952;19;20137;-93
2023/11/07 12:04:35;;;;;;;0.30;0.30;;;;;;;;;;7395114;19;20173;-93
2023/11/07 12:07:09;;;;;;;0.30;0.30;;;;;;;;;;7395353;19;20160;-88
2023/11/07 12:09:38;;;;;;;0.20;0.20;;;;;;;;;;7395662;19;20147;-90
2023/11/07 12:12:05;;;;;;;0.20;0.20;;;;;;;;;;7397305;19;20121;-92
2023/11/07 12:14:34;;;;;;;0.30;0.30;;;;;;;;;;7398752;19;20160;-93
2023/11/07 12:17:03;;;;;;;0.30;0.30;;;;;;;;;;7395434;19;20137;-94
2023/11/07 12:19:32;;;;;;;0.38;0.38;;;;;;;;;;7394717;19;20498;-95
2023/11/07 12:21:59;;;;;;;0.30;0.30;;;;;;;;;;7397089;19;20141;-93
2023/11/07 12:24:26;;;;;;;0.30;0.30;;;;;;;;;;7393031;19;20149;-92
2023/11/07 12:26:53;;;;;;;0.30;0.30;;;;;;;;;;7393911;19;20158;-91
2023/11/07 12:29:34;;;;;;;0.40;0.40;;;;;;;;;;7397021;19;20133;-93
2023/11/07 12:32:02;;;;;;;0.20;0.20;;;;;;;;;;7410390;19;21035;-93
2023/11/07 12:34:33;;;;;;;0.30;0.30;;;;;;;;;;7420936;19;20184;-94
2023/11/07 12:37:04;;;;;;;0.30;0.30;;;;;;;;;;7393993;19;20156;-94
2023/11/07 12:39:33;;;;;;;0.20;0.20;;;;;;;;;;7392969;19;20133;-90
2023/11/07 12:42:00;;;;;;;0.30;0.30;;;;;;;;;;7395532;19;20484;-92
2023/11/07 12:44:28;;;;;;;0.30;0.30;;;;;;;;;;7396388;19;20216;-94
2023/11/07 12:46:55;;;;;;;0.52;0.52;;;;;;;;;;7394612;19;20160;-92
2023/11/07 12:49:23;;;;;;;0.30;0.30;;;;;;;;;;7396362;19;20168;-91
2023/11/07 12:51:50;;;;;;;0.30;0.30;;;;;;;;;;7397758;19;20208;-92
2023/11/07 12:54:25;;;;;;;0.30;0.30;;;;;;;;;;7395118;19;20168;-93
2023/11/07 12:56:52;;;;;;;0.30;0.30;;;;;;;;;;7394769;19;20151;-90
2023/11/07 12:59:19;;;;;;;0.20;0.20;;;;;;;;;;7393792;19;20181;-92
2023/11/07 13:01:49;;;;;;;0.20;0.20;;;;;;;;;;7393205;19;20141;-93
2023/11/07 13:04:17;;;;;;;0.30;0.30;;;;;;;;;;7394796;19;20499;-93
2023/11/07 13:06:57;;;;;;;0.30;0.30;;;;;;;;;;7395724;19;20133;-91
2023/11/07 13:09:25;;;;;;;0.30;0.30;;;;;;;;;;7393271;19;20145;-94
2023/11/07 13:12:19;;;;;;;0.30;0.30;;;;;;;;;;7395212;19;20158;-92
2023/11/07 13:14:48;;;;;;;0.30;0.30;;;;;;;;;;7396910;19;20151;-92
2023/11/07 13:17:15;;;;;;;0.30;0.30;;;;;;;;;;7397863;19;20141;-92
2023/11/07 13:19:42;;;;;;;0.30;0.30;;;;;;;;;;7394302;19;20552;-93
2023/11/07 13:22:10;;;;;;;0.20;0.20;;;;;;;;;;7394751;19;20141;-92
2023/11/07 13:24:37;;;;;;;0.30;0.30;;;;;;;;;;7393195;19;20196;-93
2023/11/07 13:27:05;;;;;;;0.87;0.87;;;;;;;;;;7393089;19;21011;-93
2023/11/07 13:29:33;;;;;;;0.30;0.30;;;;;;;;;;7392303;19;20141;-93
2023/11/07 13:32:00;;;;;;;0.30;0.30;;;;;;;;;;7396090;19;20137;-92
2023/11/07 13:34:27;;;;;;;0.30;0.30;;;;;;;;;;7391554;19;20201;-94
2023/11/07 13:36:54;;;;;;;0.30;0.30;;;;;;;;;;7397120;19;20137;-93
2023/11/07 13:39:24;;;;;;;0.30;0.30;;;;;;;;;;7398559;19;20133;-93
2023/11/07 13:41:52;;;;;;;0.30;0.30;;;;;;;;;;7399400;19;20193;-93
2023/11/07 13:44:19;;;;;;;0.30;0.30;;;;;;;;;;7401078;19;20655;-93
2023/11/07 13:46:46;;;;;;;0.40;0.40;;;;;;;;;;7404300;19;20155;-94
2023/11/07 13:49:15;;;;;;;0.20;0.20;;;;;;;;;;7397134;19;20157;-92
2023/11/07 13:51:44;;;;;;;0.30;0.30;;;;;;;;;;7393982;19;20137;-94
2023/11/07 13:54:12;;;;;;;0.40;0.40;;;;;;;;;;7391202;19;20157;-93
2023/11/07 13:57:01;;;;;;;0.30;0.30;;;;;;;;;;7395803;19;20133;-91
2023/11/07 13:59:47;;;;;;;0.30;0.30;;;;;;;;;;7392210;19;20206;-93
2023/11/07 14:02:54;;;;;;;0.30;0.30;;;;;;;;;;7395836;19;20152;-92
2023/11/07 14:05:37;;;;;;;0.30;0.30;;;;;;;;;;7389164;19;20172;-91
2023/11/07 14:08:15;;;;;;;0.20;0.20;;;;;;;;;;7392775;19;20156;-91
2023/11/07 14:10:46;;;;;;;0.30;0.30;;;;;;;;;;7389535;19;20129;-93
2023/11/07 14:13:15;;;;;;;0.20;0.20;;;;;;;;;;7388960;19;20141;-94
2023/11/07 14:20:06;;;;;;;0.30;0.30;;;;;;;;;;7390469;19;20117;-92
2023/11/07 14:23:00;;;;;;;0.30;0.30;;;;;;;;;;7391069;19;20507;-93
2023/11/07 14:25:36;;;;;;;0.30;0.30;;;;;;;;;;7389634;19;20160;-92
2023/11/07 14:28:43;;;;;;;0.30;0.30;;;;;;;;;;7390295;19;20154;-93
2023/11/07 14:32:23;;;;;;;0.30;0.30;;;;;;;;;;7392136;19;20152;-92
2023/11/07 15:50:36;;;;;;;0.30;0.30;;;;;;;;;;7398491;19;20164;-92
2023/11/07 15:53:07;;;;;;;0.30;0.30;;;;;;;;;;7394537;19;20168;-90
2023/11/07 15:55:36;;;;;;;0.43;0.43;;;;;;;;;;7392581;19;20705;-91
2023/11/07 15:58:05;;;;;;;0.40;0.40;;;;;;;;;;7393889;19;21046;-92
2023/11/07 16:00:32;;;;;;;0.30;0.30;;;;;;;;;;7395696;19;20479;-91
2023/11/07 16:03:01;;;;;;;0.30;0.30;;;;;;;;;;7424655;19;20142;-90
2023/11/07 16:05:32;;;;;;;0.30;0.30;;;;;;;;;;7411814;19;20150;-93
2023/11/07 16:07:59;;;;;;;0.20;0.20;;;;;;;;;;7418809;19;20601;-91
2023/11/07 16:10:26;;;;;;;0.30;0.30;;;;;;;;;;7407493;19;20140;-92
2023/11/07 16:12:53;;;;;;;0.30;0.30;;;;;;;;;;7392169;19;20141;-92
2023/11/07 16:15:21;;;;;;;0.30;0.30;;;;;;;;;;7395219;19;20153;-92
2023/11/07 16:17:50;;;;;;;0.20;0.20;;;;;;;;;;7397900;19;20151;-93
2023/11/07 16:20:18;;;;;;;0.30;0.30;;;;;;;;;;7391095;19;20148;-91
2023/11/07 16:22:48;;;;;;;0.30;0.30;;;;;;;;;;7392178;19;20136;-93